Main page
METAR-TAF:

METAR-TAF

Airports :

Burnet Municipal Airport

Burnet, Texas, United States

latitude: 30-44-26N, longitude: 098-14-07W, elevation: 1286 ft

Current weather observation

The report was made 1 hour and 9 minutes ago, at 12:53 UTC
Calm wind
Temperature 75°F
Humidity 89%
Pressure 30.05 in. Hg
Visibility: 10 miles
Clear sky

METAR: KBMQ 231253Z AUTO 00000KT 10SM CLR 24/22 A3005 RMK AO2 SLP157 T02390222

Time: 09:02 (14:02 UTC)


TAF: missing

Weather observations and forecasts of more than 4000 airports (METAR and TAF reports).

The available stations are represented by yellow and red dots on the map.

Hover mouse over dot to see the name of the station.

Then click to see weather observations and forecasts.

To change the map : click on the green buttons with a black cross to zoom in, on the green button with a dash to zoom out, or on the green arrows for adjacent maps.


METAR-TAF: